sensor_id;sensor_type;location;lat;lon;timestamp;P1;durP1;ratioP1;P2;durP2;ratioP2
63280;SDS011;49406;51.044;3.766;2022-08-19T00:02:20;32.60;;;18.50;;
63280;SDS011;49406;51.044;3.766;2022-08-19T00:04:54;44.30;;;24.90;;
63280;SDS011;49406;51.044;3.766;2022-08-19T00:07:29;41.90;;;18.40;;
63280;SDS011;49406;51.044;3.766;2022-08-19T00:10:04;39.70;;;19.60;;
63280;SDS011;49406;51.044;3.766;2022-08-19T00:12:40;33.40;;;15.10;;
63280;SDS011;49406;51.044;3.766;2022-08-19T00:15:16;49.60;;;22.80;;
63280;SDS011;49406;51.044;3.766;2022-08-19T00:17:53;33.80;;;16.90;;
63280;SDS011;49406;51.044;3.766;2022-08-19T00:20:28;22.30;;;13.60;;
63280;SDS011;49406;51.044;3.766;2022-08-19T00:23:02;36.20;;;20.30;;
63280;SDS011;49406;51.044;3.766;2022-08-19T00:25:37;53.40;;;21.30;;
63280;SDS011;49406;51.044;3.766;2022-08-19T00:28:12;38.50;;;22.00;;
63280;SDS011;49406;51.044;3.766;2022-08-19T00:30:47;49.10;;;19.40;;
63280;SDS011;49406;51.044;3.766;2022-08-19T00:33:23;41.00;;;10.70;;
63280;SDS011;49406;51.044;3.766;2022-08-19T00:35:58;35.50;;;18.30;;
63280;SDS011;49406;51.044;3.766;2022-08-19T00:38:33;53.90;;;22.30;;
63280;SDS011;49406;51.044;3.766;2022-08-19T00:41:12;46.90;;;21.70;;
63280;SDS011;49406;51.044;3.766;2022-08-19T00:43:57;43.10;;;22.40;;
63280;SDS011;49406;51.044;3.766;2022-08-19T00:46:34;33.40;;;16.70;;
63280;SDS011;49406;51.044;3.766;2022-08-19T00:49:11;30.00;;;13.30;;
63280;SDS011;49406;51.044;3.766;2022-08-19T00:51:51;48.70;;;21.40;;
63280;SDS011;49406;51.044;3.766;2022-08-19T00:54:30;41.20;;;19.20;;
63280;SDS011;49406;51.044;3.766;2022-08-19T00:57:06;40.80;;;16.90;;
63280;SDS011;49406;51.044;3.766;2022-08-19T00:59:46;26.80;;;13.00;;
63280;SDS011;49406;51.044;3.766;2022-08-19T01:02:25;43.30;;;18.70;;
63280;SDS011;49406;51.044;3.766;2022-08-19T01:05:03;39.20;;;20.80;;
63280;SDS011;49406;51.044;3.766;2022-08-19T01:07:41;25.90;;;12.00;;
63280;SDS011;49406;51.044;3.766;2022-08-19T01:10:17;28.80;;;14.40;;
63280;SDS011;49406;51.044;3.766;2022-08-19T01:12:54;37.90;;;16.20;;
63280;SDS011;49406;51.044;3.766;2022-08-19T01:15:31;39.40;;;19.20;;
63280;SDS011;49406;51.044;3.766;2022-08-19T01:18:11;38.20;;;15.60;;
63280;SDS011;49406;51.044;3.766;2022-08-19T01:20:49;31.30;;;13.30;;
63280;SDS011;49406;51.044;3.766;2022-08-19T01:23:27;38.00;;;17.60;;
63280;SDS011;49406;51.044;3.766;2022-08-19T01:26:15;26.40;;;12.60;;
63280;SDS011;49406;51.044;3.766;2022-08-19T01:28:52;22.00;;;11.50;;
63280;SDS011;49406;51.044;3.766;2022-08-19T01:31:28;25.30;;;13.20;;
63280;SDS011;49406;51.044;3.766;2022-08-19T01:34:03;32.60;;;18.00;;
63280;SDS011;49406;51.044;3.766;2022-08-19T01:36:40;19.50;;;10.70;;
63280;SDS011;49406;51.044;3.766;2022-08-19T01:39:17;21.00;;;11.30;;
63280;SDS011;49406;51.044;3.766;2022-08-19T01:41:53;35.10;;;13.80;;
63280;SDS011;49406;51.044;3.766;2022-08-19T01:44:28;19.20;;;11.80;;
63280;SDS011;49406;51.044;3.766;2022-08-19T01:47:03;19.20;;;10.60;;
63280;SDS011;49406;51.044;3.766;2022-08-19T01:49:39;26.60;;;12.10;;
63280;SDS011;49406;51.044;3.766;2022-08-19T01:52:13;14.30;;;8.20;;
63280;SDS011;49406;51.044;3.766;2022-08-19T01:54:48;25.90;;;13.00;;
63280;SDS011;49406;51.044;3.766;2022-08-19T01:57:22;9.80;;;6.90;;
63280;SDS011;49406;51.044;3.766;2022-08-19T01:59:57;24.50;;;12.10;;
63280;SDS011;49406;51.044;3.766;2022-08-19T02:02:36;25.70;;;12.30;;
63280;SDS011;49406;51.044;3.766;2022-08-19T02:05:11;17.90;;;8.10;;
63280;SDS011;49406;51.044;3.766;2022-08-19T02:07:49;21.40;;;10.80;;
63280;SDS011;49406;51.044;3.766;2022-08-19T02:10:24;14.60;;;7.90;;
63280;SDS011;49406;51.044;3.766;2022-08-19T02:12:59;17.40;;;9.90;;
63280;SDS011;49406;51.044;3.766;2022-08-19T02:15:33;18.20;;;10.10;;
63280;SDS011;49406;51.044;3.766;2022-08-19T02:18:08;27.70;;;19.30;;
63280;SDS011;49406;51.044;3.766;2022-08-19T02:20:43;11.00;;;5.60;;
63280;SDS011;49406;51.044;3.766;2022-08-19T02:23:19;22.30;;;13.70;;
63280;SDS011;49406;51.044;3.766;2022-08-19T02:25:53;19.60;;;10.70;;
63280;SDS011;49406;51.044;3.766;2022-08-19T02:28:27;25.10;;;11.30;;
63280;SDS011;49406;51.044;3.766;2022-08-19T02:31:07;29.30;;;12.40;;
63280;SDS011;49406;51.044;3.766;2022-08-19T02:33:43;18.50;;;9.10;;
63280;SDS011;49406;51.044;3.766;2022-08-19T02:36:19;30.40;;;13.30;;
63280;SDS011;49406;51.044;3.766;2022-08-19T02:38:54;12.80;;;7.00;;
63280;SDS011;49406;51.044;3.766;2022-08-19T02:41:30;20.70;;;12.80;;
63280;SDS011;49406;51.044;3.766;2022-08-19T02:44:05;27.00;;;15.20;;
63280;SDS011;49406;51.044;3.766;2022-08-19T02:46:40;28.50;;;12.30;;
63280;SDS011;49406;51.044;3.766;2022-08-19T02:49:16;20.30;;;11.30;;
63280;SDS011;49406;51.044;3.766;2022-08-19T02:51:51;20.00;;;11.40;;
63280;SDS011;49406;51.044;3.766;2022-08-19T02:54:25;16.10;;;11.00;;
63280;SDS011;49406;51.044;3.766;2022-08-19T02:57:00;20.10;;;9.50;;
63280;SDS011;49406;51.044;3.766;2022-08-19T02:59:35;29.20;;;13.10;;
63280;SDS011;49406;51.044;3.766;2022-08-19T03:02:11;22.10;;;12.90;;
63280;SDS011;49406;51.044;3.766;2022-08-19T03:04:46;14.20;;;7.20;;
63280;SDS011;49406;51.044;3.766;2022-08-19T03:07:20;21.40;;;11.80;;
63280;SDS011;49406;51.044;3.766;2022-08-19T03:09:55;19.70;;;11.10;;
63280;SDS011;49406;51.044;3.766;2022-08-19T03:12:29;20.50;;;12.90;;
63280;SDS011;49406;51.044;3.766;2022-08-19T03:15:08;13.50;;;7.20;;
63280;SDS011;49406;51.044;3.766;2022-08-19T03:17:43;18.30;;;9.40;;
63280;SDS011;49406;51.044;3.766;2022-08-19T03:20:18;25.50;;;13.80;;
63280;SDS011;49406;51.044;3.766;2022-08-19T03:22:52;24.30;;;10.10;;
63280;SDS011;49406;51.044;3.766;2022-08-19T03:25:27;31.20;;;12.70;;
63280;SDS011;49406;51.044;3.766;2022-08-19T03:28:02;26.60;;;10.80;;
63280;SDS011;49406;51.044;3.766;2022-08-19T03:30:37;16.30;;;8.00;;
63280;SDS011;49406;51.044;3.766;2022-08-19T03:33:13;23.90;;;10.00;;
63280;SDS011;49406;51.044;3.766;2022-08-19T03:35:47;17.00;;;8.90;;
63280;SDS011;49406;51.044;3.766;2022-08-19T03:38:34;17.70;;;9.30;;
63280;SDS011;49406;51.044;3.766;2022-08-19T03:41:11;18.20;;;7.30;;
63280;SDS011;49406;51.044;3.766;2022-08-19T03:43:46;24.90;;;11.50;;
63280;SDS011;49406;51.044;3.766;2022-08-19T03:46:22;12.80;;;6.30;;
63280;SDS011;49406;51.044;3.766;2022-08-19T03:48:59;21.70;;;9.80;;
63280;SDS011;49406;51.044;3.766;2022-08-19T03:51:40;25.30;;;10.10;;
63280;SDS011;49406;51.044;3.766;2022-08-19T03:54:16;22.40;;;9.10;;
63280;SDS011;49406;51.044;3.766;2022-08-19T03:56:55;14.10;;;12.20;;
63280;SDS011;49406;51.044;3.766;2022-08-19T03:59:31;24.60;;;9.30;;
63280;SDS011;49406;51.044;3.766;2022-08-19T04:02:09;17.80;;;9.30;;
63280;SDS011;49406;51.044;3.766;2022-08-19T04:04:44;13.30;;;8.70;;
63280;SDS011;49406;51.044;3.766;2022-08-19T04:07:18;13.50;;;7.20;;
63280;SDS011;49406;51.044;3.766;2022-08-19T04:09:53;26.80;;;7.80;;
63280;SDS011;49406;51.044;3.766;2022-08-19T04:12:27;18.40;;;7.50;;
63280;SDS011;49406;51.044;3.766;2022-08-19T04:15:02;15.80;;;8.70;;
63280;SDS011;49406;51.044;3.766;2022-08-19T04:17:38;12.40;;;8.20;;
63280;SDS011;49406;51.044;3.766;2022-08-19T04:20:12;11.30;;;7.30;;
63280;SDS011;49406;51.044;3.766;2022-08-19T04:22:46;16.20;;;8.50;;
63280;SDS011;49406;51.044;3.766;2022-08-19T04:25:21;12.70;;;6.10;;
63280;SDS011;49406;51.044;3.766;2022-08-19T04:27:55;14.50;;;10.80;;
63280;SDS011;49406;51.044;3.766;2022-08-19T04:30:30;11.10;;;6.00;;
63280;SDS011;49406;51.044;3.766;2022-08-19T04:33:09;17.20;;;9.10;;
63280;SDS011;49406;51.044;3.766;2022-08-19T04:35:47;19.60;;;6.90;;
63280;SDS011;49406;51.044;3.766;2022-08-19T04:38:23;14.00;;;6.20;;
63280;SDS011;49406;51.044;3.766;2022-08-19T04:40:58;12.40;;;8.50;;
63280;SDS011;49406;51.044;3.766;2022-08-19T04:43:50;11.80;;;6.80;;
63280;SDS011;49406;51.044;3.766;2022-08-19T04:46:24;17.50;;;6.30;;
63280;SDS011;49406;51.044;3.766;2022-08-19T04:49:00;17.00;;;7.90;;
63280;SDS011;49406;51.044;3.766;2022-08-19T04:51:39;14.60;;;8.00;;
63280;SDS011;49406;51.044;3.766;2022-08-19T04:54:16;14.80;;;9.10;;
63280;SDS011;49406;51.044;3.766;2022-08-19T04:56:53;13.00;;;6.40;;
63280;SDS011;49406;51.044;3.766;2022-08-19T04:59:28;16.00;;;8.50;;
63280;SDS011;49406;51.044;3.766;2022-08-19T05:02:04;13.40;;;6.70;;
63280;SDS011;49406;51.044;3.766;2022-08-19T05:04:39;27.40;;;9.50;;
63280;SDS011;49406;51.044;3.766;2022-08-19T05:07:14;11.20;;;7.00;;
63280;SDS011;49406;51.044;3.766;2022-08-19T05:09:48;12.90;;;6.80;;
63280;SDS011;49406;51.044;3.766;2022-08-19T05:12:23;17.70;;;8.40;;
63280;SDS011;49406;51.044;3.766;2022-08-19T05:14:59;11.00;;;6.60;;
63280;SDS011;49406;51.044;3.766;2022-08-19T05:17:34;11.80;;;5.70;;
63280;SDS011;49406;51.044;3.766;2022-08-19T05:20:10;6.50;;;4.00;;
63280;SDS011;49406;51.044;3.766;2022-08-19T05:23:02;9.50;;;6.30;;
63280;SDS011;49406;51.044;3.766;2022-08-19T05:25:38;19.50;;;8.20;;
63280;SDS011;49406;51.044;3.766;2022-08-19T05:28:13;13.30;;;5.00;;
63280;SDS011;49406;51.044;3.766;2022-08-19T05:30:48;9.60;;;5.00;;
63280;SDS011;49406;51.044;3.766;2022-08-19T05:33:22;19.10;;;8.20;;
63280;SDS011;49406;51.044;3.766;2022-08-19T05:35:57;8.30;;;5.40;;
63280;SDS011;49406;51.044;3.766;2022-08-19T05:38:31;16.50;;;8.50;;
63280;SDS011;49406;51.044;3.766;2022-08-19T05:41:07;20.80;;;8.20;;
63280;SDS011;49406;51.044;3.766;2022-08-19T05:43:43;10.60;;;6.20;;
63280;SDS011;49406;51.044;3.766;2022-08-19T05:46:18;12.60;;;6.30;;
63280;SDS011;49406;51.044;3.766;2022-08-19T05:48:53;19.40;;;7.10;;
63280;SDS011;49406;51.044;3.766;2022-08-19T05:51:28;12.70;;;5.80;;
63280;SDS011;49406;51.044;3.766;2022-08-19T05:54:04;19.10;;;8.30;;
63280;SDS011;49406;51.044;3.766;2022-08-19T05:56:40;10.40;;;5.90;;
63280;SDS011;49406;51.044;3.766;2022-08-19T05:59:15;20.90;;;7.30;;
63280;SDS011;49406;51.044;3.766;2022-08-19T06:01:51;12.50;;;6.20;;
63280;SDS011;49406;51.044;3.766;2022-08-19T06:04:27;8.30;;;6.20;;
63280;SDS011;49406;51.044;3.766;2022-08-19T06:07:01;9.40;;;6.00;;
63280;SDS011;49406;51.044;3.766;2022-08-19T06:09:36;13.70;;;7.00;;
63280;SDS011;49406;51.044;3.766;2022-08-19T06:12:10;8.30;;;5.50;;
63280;SDS011;49406;51.044;3.766;2022-08-19T06:14:45;20.50;;;6.10;;
63280;SDS011;49406;51.044;3.766;2022-08-19T06:17:22;11.90;;;7.20;;
63280;SDS011;49406;51.044;3.766;2022-08-19T06:19:57;13.30;;;7.20;;
63280;SDS011;49406;51.044;3.766;2022-08-19T06:22:31;9.80;;;5.30;;
63280;SDS011;49406;51.044;3.766;2022-08-19T06:25:12;13.40;;;5.10;;
63280;SDS011;49406;51.044;3.766;2022-08-19T06:27:48;11.00;;;5.00;;
63280;SDS011;49406;51.044;3.766;2022-08-19T06:30:22;8.40;;;5.10;;
63280;SDS011;49406;51.044;3.766;2022-08-19T06:32:57;4.90;;;3.40;;
63280;SDS011;49406;51.044;3.766;2022-08-19T06:35:31;8.20;;;5.60;;
63280;SDS011;49406;51.044;3.766;2022-08-19T06:38:10;9.50;;;5.00;;
63280;SDS011;49406;51.044;3.766;2022-08-19T06:40:45;8.20;;;6.00;;
63280;SDS011;49406;51.044;3.766;2022-08-19T06:43:19;9.40;;;5.60;;
63280;SDS011;49406;51.044;3.766;2022-08-19T06:45:54;11.50;;;6.60;;
63280;SDS011;49406;51.044;3.766;2022-08-19T06:48:28;11.20;;;5.00;;
63280;SDS011;49406;51.044;3.766;2022-08-19T06:51:03;12.60;;;6.50;;
63280;SDS011;49406;51.044;3.766;2022-08-19T06:53:38;8.90;;;6.20;;
63280;SDS011;49406;51.044;3.766;2022-08-19T06:56:15;8.10;;;6.10;;
63280;SDS011;49406;51.044;3.766;2022-08-19T06:58:52;9.10;;;5.70;;
63280;SDS011;49406;51.044;3.766;2022-08-19T07:01:26;10.80;;;6.10;;
63280;SDS011;49406;51.044;3.766;2022-08-19T07:04:01;7.10;;;6.20;;
63280;SDS011;49406;51.044;3.766;2022-08-19T07:06:36;7.50;;;5.00;;
63280;SDS011;49406;51.044;3.766;2022-08-19T07:09:12;6.50;;;4.90;;
63280;SDS011;49406;51.044;3.766;2022-08-19T07:11:49;4.70;;;3.60;;
63280;SDS011;49406;51.044;3.766;2022-08-19T07:14:26;10.70;;;5.10;;
63280;SDS011;49406;51.044;3.766;2022-08-19T07:17:00;16.40;;;6.20;;
63280;SDS011;49406;51.044;3.766;2022-08-19T07:19:36;13.60;;;5.60;;
63280;SDS011;49406;51.044;3.766;2022-08-19T07:22:11;7.50;;;3.90;;
63280;SDS011;49406;51.044;3.766;2022-08-19T07:24:46;7.70;;;4.90;;
63280;SDS011;49406;51.044;3.766;2022-08-19T07:27:21;9.80;;;7.00;;
63280;SDS011;49406;51.044;3.766;2022-08-19T07:29:55;8.80;;;4.60;;
63280;SDS011;49406;51.044;3.766;2022-08-19T07:32:30;6.70;;;3.20;;
63280;SDS011;49406;51.044;3.766;2022-08-19T07:35:06;5.60;;;3.50;;
63280;SDS011;49406;51.044;3.766;2022-08-19T07:37:41;5.40;;;3.80;;
63280;SDS011;49406;51.044;3.766;2022-08-19T07:40:16;9.70;;;4.20;;
63280;SDS011;49406;51.044;3.766;2022-08-19T07:42:51;14.40;;;5.30;;
63280;SDS011;49406;51.044;3.766;2022-08-19T07:45:25;7.20;;;4.30;;
63280;SDS011;49406;51.044;3.766;2022-08-19T07:48:00;3.30;;;3.00;;
63280;SDS011;49406;51.044;3.766;2022-08-19T07:50:35;6.70;;;4.90;;
63280;SDS011;49406;51.044;3.766;2022-08-19T07:53:09;8.10;;;3.60;;
63280;SDS011;49406;51.044;3.766;2022-08-19T07:55:44;6.40;;;3.70;;
63280;SDS011;49406;51.044;3.766;2022-08-19T07:58:19;8.90;;;4.40;;
63280;SDS011;49406;51.044;3.766;2022-08-19T08:00:54;18.70;;;4.40;;
63280;SDS011;49406;51.044;3.766;2022-08-19T08:03:29;5.70;;;4.00;;
63280;SDS011;49406;51.044;3.766;2022-08-19T08:06:22;15.10;;;7.60;;
63280;SDS011;49406;51.044;3.766;2022-08-19T08:09:15;8.70;;;5.90;;
63280;SDS011;49406;51.044;3.766;2022-08-19T08:14:32;4.90;;;3.40;;
63280;SDS011;49406;51.044;3.766;2022-08-19T08:17:10;7.50;;;5.10;;
63280;SDS011;49406;51.044;3.766;2022-08-19T08:19:45;7.50;;;4.70;;
63280;SDS011;49406;51.044;3.766;2022-08-19T08:22:22;9.20;;;6.00;;
63280;SDS011;49406;51.044;3.766;2022-08-19T08:25:17;9.00;;;4.70;;
63280;SDS011;49406;51.044;3.766;2022-08-19T08:27:54;10.80;;;5.70;;
63280;SDS011;49406;51.044;3.766;2022-08-19T08:30:31;6.20;;;4.50;;
63280;SDS011;49406;51.044;3.766;2022-08-19T08:33:07;6.20;;;3.80;;
63280;SDS011;49406;51.044;3.766;2022-08-19T08:35:42;7.50;;;5.50;;
63280;SDS011;49406;51.044;3.766;2022-08-19T08:38:17;13.40;;;5.20;;
63280;SDS011;49406;51.044;3.766;2022-08-19T08:40:52;5.00;;;2.70;;
63280;SDS011;49406;51.044;3.766;2022-08-19T08:43:38;8.80;;;4.50;;
63280;SDS011;49406;51.044;3.766;2022-08-19T08:46:15;13.10;;;5.80;;
63280;SDS011;49406;51.044;3.766;2022-08-19T08:48:56;9.50;;;4.80;;
63280;SDS011;49406;51.044;3.766;2022-08-19T08:51:37;9.50;;;6.00;;
63280;SDS011;49406;51.044;3.766;2022-08-19T08:54:18;5.60;;;3.20;;
63280;SDS011;49406;51.044;3.766;2022-08-19T08:56:58;16.00;;;4.80;;
63280;SDS011;49406;51.044;3.766;2022-08-19T08:59:33;5.50;;;4.60;;
63280;SDS011;49406;51.044;3.766;2022-08-19T09:02:12;5.20;;;3.50;;
63280;SDS011;49406;51.044;3.766;2022-08-19T09:04:47;5.40;;;4.80;;
63280;SDS011;49406;51.044;3.766;2022-08-19T09:07:25;5.90;;;4.00;;
63280;SDS011;49406;51.044;3.766;2022-08-19T09:10:14;5.60;;;4.70;;
63280;SDS011;49406;51.044;3.766;2022-08-19T09:13:03;7.80;;;4.30;;
63280;SDS011;49406;51.044;3.766;2022-08-19T09:15:47;6.10;;;3.70;;
63280;SDS011;49406;51.044;3.766;2022-08-19T09:18:25;6.60;;;3.10;;
63280;SDS011;49406;51.044;3.766;2022-08-19T09:21:10;4.80;;;3.90;;
63280;SDS011;49406;51.044;3.766;2022-08-19T09:23:45;3.70;;;3.00;;
63280;SDS011;49406;51.044;3.766;2022-08-19T09:26:21;9.90;;;4.40;;
63280;SDS011;49406;51.044;3.766;2022-08-19T09:28:55;5.50;;;4.80;;
63280;SDS011;49406;51.044;3.766;2022-08-19T09:31:32;9.60;;;3.90;;
63280;SDS011;49406;51.044;3.766;2022-08-19T09:34:06;5.40;;;3.40;;
63280;SDS011;49406;51.044;3.766;2022-08-19T09:36:41;4.30;;;3.50;;
63280;SDS011;49406;51.044;3.766;2022-08-19T09:39:15;4.20;;;3.50;;
63280;SDS011;49406;51.044;3.766;2022-08-19T09:41:50;3.80;;;2.50;;
63280;SDS011;49406;51.044;3.766;2022-08-19T09:44:25;5.50;;;2.50;;
63280;SDS011;49406;51.044;3.766;2022-08-19T09:46:59;3.80;;;2.20;;
63280;SDS011;49406;51.044;3.766;2022-08-19T09:49:35;4.30;;;2.80;;
63280;SDS011;49406;51.044;3.766;2022-08-19T09:52:10;5.40;;;3.10;;
63280;SDS011;49406;51.044;3.766;2022-08-19T09:54:46;4.30;;;3.00;;
63280;SDS011;49406;51.044;3.766;2022-08-19T09:57:24;2.90;;;1.60;;
63280;SDS011;49406;51.044;3.766;2022-08-19T09:59:58;4.70;;;3.30;;
63280;SDS011;49406;51.044;3.766;2022-08-19T10:02:33;3.30;;;2.70;;
63280;SDS011;49406;51.044;3.766;2022-08-19T10:05:09;8.50;;;2.60;;
63280;SDS011;49406;51.044;3.766;2022-08-19T10:08:01;7.60;;;2.70;;
63280;SDS011;49406;51.044;3.766;2022-08-19T10:10:36;3.20;;;2.80;;
63280;SDS011;49406;51.044;3.766;2022-08-19T10:13:10;5.10;;;2.50;;
63280;SDS011;49406;51.044;3.766;2022-08-19T10:15:46;5.20;;;2.80;;
63280;SDS011;49406;51.044;3.766;2022-08-19T10:18:21;3.30;;;1.90;;
63280;SDS011;49406;51.044;3.766;2022-08-19T10:21:03;2.70;;;2.30;;
63280;SDS011;49406;51.044;3.766;2022-08-19T10:23:45;4.20;;;2.40;;
63280;SDS011;49406;51.044;3.766;2022-08-19T10:26:23;3.60;;;2.60;;
63280;SDS011;49406;51.044;3.766;2022-08-19T10:28:59;5.10;;;1.70;;
63280;SDS011;49406;51.044;3.766;2022-08-19T10:31:34;3.50;;;2.90;;
63280;SDS011;49406;51.044;3.766;2022-08-19T10:34:08;2.50;;;1.40;;
63280;SDS011;49406;51.044;3.766;2022-08-19T10:36:43;1.80;;;1.40;;
63280;SDS011;49406;51.044;3.766;2022-08-19T10:39:17;3.00;;;2.40;;
63280;SDS011;49406;51.044;3.766;2022-08-19T10:41:52;1.60;;;1.20;;
63280;SDS011;49406;51.044;3.766;2022-08-19T10:44:27;2.50;;;1.80;;
63280;SDS011;49406;51.044;3.766;2022-08-19T10:47:03;1.80;;;1.50;;
63280;SDS011;49406;51.044;3.766;2022-08-19T10:49:38;2.40;;;1.50;;
63280;SDS011;49406;51.044;3.766;2022-08-19T10:52:26;2.50;;;1.60;;
63280;SDS011;49406;51.044;3.766;2022-08-19T10:55:08;1.90;;;1.40;;
63280;SDS011;49406;51.044;3.766;2022-08-19T10:58:01;4.10;;;2.50;;
63280;SDS011;49406;51.044;3.766;2022-08-19T11:00:36;2.00;;;1.80;;
63280;SDS011;49406;51.044;3.766;2022-08-19T11:03:12;6.60;;;2.00;;
63280;SDS011;49406;51.044;3.766;2022-08-19T11:05:51;2.30;;;1.50;;
63280;SDS011;49406;51.044;3.766;2022-08-19T11:08:32;4.30;;;2.00;;
63280;SDS011;49406;51.044;3.766;2022-08-19T11:11:08;2.40;;;1.30;;
63280;SDS011;49406;51.044;3.766;2022-08-19T11:13:43;4.20;;;1.70;;
63280;SDS011;49406;51.044;3.766;2022-08-19T11:16:19;2.30;;;1.60;;
63280;SDS011;49406;51.044;3.766;2022-08-19T11:18:57;4.60;;;2.20;;
63280;SDS011;49406;51.044;3.766;2022-08-19T11:21:33;1.70;;;1.60;;
63280;SDS011;49406;51.044;3.766;2022-08-19T11:24:10;2.20;;;2.00;;
63280;SDS011;49406;51.044;3.766;2022-08-19T11:26:47;1.90;;;1.30;;
63280;SDS011;49406;51.044;3.766;2022-08-19T11:29:23;1.70;;;1.30;;
63280;SDS011;49406;51.044;3.766;2022-08-19T11:31:59;3.40;;;1.80;;
63280;SDS011;49406;51.044;3.766;2022-08-19T11:34:36;1.70;;;1.40;;
63280;SDS011;49406;51.044;3.766;2022-08-19T11:37:10;1.00;;;0.60;;
63280;SDS011;49406;51.044;3.766;2022-08-19T11:39:45;3.20;;;1.10;;
63280;SDS011;49406;51.044;3.766;2022-08-19T11:42:19;5.20;;;1.10;;
63280;SDS011;49406;51.044;3.766;2022-08-19T11:45:11;2.00;;;1.00;;
63280;SDS011;49406;51.044;3.766;2022-08-19T11:47:45;2.80;;;1.00;;
63280;SDS011;49406;51.044;3.766;2022-08-19T11:50:20;2.00;;;1.40;;
63280;SDS011;49406;51.044;3.766;2022-08-19T11:52:56;1.10;;;0.70;;
63280;SDS011;49406;51.044;3.766;2022-08-19T11:55:31;1.50;;;0.60;;
63280;SDS011;49406;51.044;3.766;2022-08-19T11:58:10;1.70;;;0.80;;
63280;SDS011;49406;51.044;3.766;2022-08-19T12:00:45;1.70;;;0.80;;
63280;SDS011;49406;51.044;3.766;2022-08-19T12:03:20;1.00;;;0.50;;
63280;SDS011;49406;51.044;3.766;2022-08-19T12:05:54;0.40;;;0.30;;
63280;SDS011;49406;51.044;3.766;2022-08-19T12:08:29;1.00;;;0.60;;
63280;SDS011;49406;51.044;3.766;2022-08-19T12:11:04;3.10;;;0.80;;
63280;SDS011;49406;51.044;3.766;2022-08-19T12:13:39;0.50;;;0.50;;
63280;SDS011;49406;51.044;3.766;2022-08-19T12:16:16;1.80;;;0.80;;
63280;SDS011;49406;51.044;3.766;2022-08-19T12:18:52;1.20;;;0.80;;
63280;SDS011;49406;51.044;3.766;2022-08-19T12:21:27;5.10;;;0.90;;
63280;SDS011;49406;51.044;3.766;2022-08-19T12:24:03;1.20;;;0.80;;
63280;SDS011;49406;51.044;3.766;2022-08-19T12:26:39;1.50;;;1.10;;
63280;SDS011;49406;51.044;3.766;2022-08-19T12:29:13;4.60;;;1.00;;
63280;SDS011;49406;51.044;3.766;2022-08-19T12:31:48;2.90;;;1.00;;
63280;SDS011;49406;51.044;3.766;2022-08-19T12:34:22;2.20;;;1.50;;
63280;SDS011;49406;51.044;3.766;2022-08-19T12:36:58;0.90;;;0.80;;
63280;SDS011;49406;51.044;3.766;2022-08-19T12:39:35;1.20;;;0.60;;
63280;SDS011;49406;51.044;3.766;2022-08-19T12:42:13;4.10;;;0.80;;
63280;SDS011;49406;51.044;3.766;2022-08-19T12:44:49;0.90;;;0.80;;
63280;SDS011;49406;51.044;3.766;2022-08-19T12:47:24;1.20;;;0.80;;
63280;SDS011;49406;51.044;3.766;2022-08-19T12:49:59;0.60;;;0.50;;
63280;SDS011;49406;51.044;3.766;2022-08-19T12:52:34;1.90;;;1.60;;
63280;SDS011;49406;51.044;3.766;2022-08-19T12:55:09;1.30;;;0.90;;
63280;SDS011;49406;51.044;3.766;2022-08-19T12:57:44;2.80;;;1.30;;
63280;SDS011;49406;51.044;3.766;2022-08-19T13:00:20;0.80;;;0.70;;
63280;SDS011;49406;51.044;3.766;2022-08-19T13:02:55;3.50;;;1.30;;
63280;SDS011;49406;51.044;3.766;2022-08-19T13:05:30;3.80;;;1.30;;
63280;SDS011;49406;51.044;3.766;2022-08-19T13:08:06;1.60;;;1.00;;
63280;SDS011;49406;51.044;3.766;2022-08-19T13:10:40;0.70;;;0.60;;
63280;SDS011;49406;51.044;3.766;2022-08-19T13:13:15;0.90;;;0.70;;
63280;SDS011;49406;51.044;3.766;2022-08-19T13:15:50;1.00;;;0.70;;
63280;SDS011;49406;51.044;3.766;2022-08-19T13:18:24;2.00;;;0.80;;
63280;SDS011;49406;51.044;3.766;2022-08-19T13:21:02;1.50;;;1.20;;
63280;SDS011;49406;51.044;3.766;2022-08-19T13:23:38;1.50;;;1.00;;
63280;SDS011;49406;51.044;3.766;2022-08-19T13:26:13;1.40;;;0.80;;
63280;SDS011;49406;51.044;3.766;2022-08-19T13:28:48;0.80;;;0.40;;
63280;SDS011;49406;51.044;3.766;2022-08-19T13:31:41;1.50;;;0.60;;
63280;SDS011;49406;51.044;3.766;2022-08-19T13:34:33;1.20;;;0.60;;
63280;SDS011;49406;51.044;3.766;2022-08-19T13:37:09;5.70;;;1.10;;
63280;SDS011;49406;51.044;3.766;2022-08-19T13:39:43;3.30;;;2.10;;
63280;SDS011;49406;51.044;3.766;2022-08-19T13:42:18;1.80;;;1.30;;
63280;SDS011;49406;51.044;3.766;2022-08-19T13:44:54;2.20;;;0.70;;
63280;SDS011;49406;51.044;3.766;2022-08-19T13:47:29;3.90;;;1.30;;
63280;SDS011;49406;51.044;3.766;2022-08-19T13:50:06;2.40;;;1.10;;
63280;SDS011;49406;51.044;3.766;2022-08-19T13:52:43;2.90;;;1.20;;
63280;SDS011;49406;51.044;3.766;2022-08-19T13:55:18;9.60;;;1.50;;
63280;SDS011;49406;51.044;3.766;2022-08-19T13:57:55;2.60;;;1.00;;
63280;SDS011;49406;51.044;3.766;2022-08-19T14:00:35;2.80;;;1.10;;
63280;SDS011;49406;51.044;3.766;2022-08-19T14:03:11;2.70;;;1.70;;
63280;SDS011;49406;51.044;3.766;2022-08-19T14:05:46;1.10;;;0.90;;
63280;SDS011;49406;51.044;3.766;2022-08-19T14:08:21;3.80;;;2.10;;
63280;SDS011;49406;51.044;3.766;2022-08-19T14:10:55;5.40;;;2.40;;
63280;SDS011;49406;51.044;3.766;2022-08-19T14:13:30;4.70;;;3.40;;
63280;SDS011;49406;51.044;3.766;2022-08-19T14:16:08;5.40;;;2.20;;
63280;SDS011;49406;51.044;3.766;2022-08-19T14:18:43;6.50;;;3.30;;
63280;SDS011;49406;51.044;3.766;2022-08-19T14:21:20;8.90;;;4.80;;
63280;SDS011;49406;51.044;3.766;2022-08-19T14:23:56;11.30;;;5.30;;
63280;SDS011;49406;51.044;3.766;2022-08-19T14:26:31;5.20;;;3.30;;
63280;SDS011;49406;51.044;3.766;2022-08-19T14:29:05;6.50;;;4.10;;
63280;SDS011;49406;51.044;3.766;2022-08-19T14:31:40;7.10;;;3.50;;
63280;SDS011;49406;51.044;3.766;2022-08-19T14:34:14;2.20;;;1.80;;
63280;SDS011;49406;51.044;3.766;2022-08-19T14:36:49;10.60;;;4.90;;
63280;SDS011;49406;51.044;3.766;2022-08-19T14:39:23;9.20;;;2.90;;
63280;SDS011;49406;51.044;3.766;2022-08-19T14:41:57;8.80;;;5.50;;
63280;SDS011;49406;51.044;3.766;2022-08-19T14:44:32;9.30;;;4.10;;
63280;SDS011;49406;51.044;3.766;2022-08-19T14:47:07;15.30;;;6.00;;
63280;SDS011;49406;51.044;3.766;2022-08-19T14:49:42;15.60;;;8.60;;
63280;SDS011;49406;51.044;3.766;2022-08-19T14:52:17;9.10;;;5.60;;
63280;SDS011;49406;51.044;3.766;2022-08-19T14:54:51;19.30;;;10.40;;
63280;SDS011;49406;51.044;3.766;2022-08-19T14:57:26;21.00;;;12.50;;
63280;SDS011;49406;51.044;3.766;2022-08-19T15:00:03;14.90;;;7.70;;
63280;SDS011;49406;51.044;3.766;2022-08-19T15:02:43;17.90;;;10.40;;
63280;SDS011;49406;51.044;3.766;2022-08-19T15:05:17;22.60;;;10.60;;
63280;SDS011;49406;51.044;3.766;2022-08-19T15:07:52;14.40;;;8.10;;
63280;SDS011;49406;51.044;3.766;2022-08-19T15:10:27;19.90;;;13.50;;
63280;SDS011;49406;51.044;3.766;2022-08-19T15:13:02;37.70;;;13.60;;
63280;SDS011;49406;51.044;3.766;2022-08-19T15:15:37;27.30;;;13.40;;
63280;SDS011;49406;51.044;3.766;2022-08-19T15:18:12;22.90;;;11.70;;
63280;SDS011;49406;51.044;3.766;2022-08-19T15:20:46;33.70;;;14.20;;
63280;SDS011;49406;51.044;3.766;2022-08-19T15:23:21;18.90;;;11.00;;
63280;SDS011;49406;51.044;3.766;2022-08-19T15:25:56;16.30;;;7.30;;
63280;SDS011;49406;51.044;3.766;2022-08-19T15:28:30;26.30;;;18.30;;
63280;SDS011;49406;51.044;3.766;2022-08-19T15:31:04;21.00;;;11.90;;
63280;SDS011;49406;51.044;3.766;2022-08-19T15:33:39;9.40;;;5.30;;
63280;SDS011;49406;51.044;3.766;2022-08-19T15:36:14;22.90;;;10.20;;